Weather observations for the past three days for
Pella, Pella Municipal Airport
Imperial (Metric)
Date Time (cdt) Wind (mph) Vis. (mi.) Weather Sky Cond. Temperature (ºF) Relative Humidity Wind Chill (°F) Heat Index (°F) Pressure Precipitation (in)
Air Dwpt 6 hour altimeter (in) sea level (mb) 1 hr 3 hr 6 hr
Max. Min.
02 02:15 S 7 10.00 Fair CLR 77.4 67.3 71% 79 29.92 0.0
02 01:55 S 6 10.00 Fair CLR 77.7 67.5 71% 80 29.91 0.0
02 01:35 S 8 10.00 Fair CLR 77.7 67.5 71% 80 29.92 0.0
02 01:15 S 9 10.00 Fair CLR 77.7 67.5 71% 80 29.93 0.0
02 00:55 S 7 10.00 Fair CLR 77.5 67.5 88.3 77.4 71% 79 29.93 0.0
02 00:35 S 8 10.00 Fair CLR 78.1 67.6 70% 80 29.93 0.0
02 00:15 S 8 10.00 Fair CLR 78.3 67.8 70% 80 29.93 0.0
01 23:55 S 8 10.00 Fair CLR 78.6 68.2 70% 81 29.93 0.0
01 23:35 S 7 10.00 Fair CLR 79 68.4 70% 81 29.94 0.0
01 23:15 S 7 10.00 Fair CLR 79 68.9 71% 81 29.93 0.0
01 22:55 S 7 10.00 Fair CLR 80.2 68.9 68% 83 29.94 0.0
01 22:35 S 7 10.00 Fair CLR 80.1 69.4 70% 83 29.93 0.0
01 22:15 SE 7 10.00 Fair CLR 79.5 70.2 73% 83 29.93 0.0
01 21:55 SE 6 10.00 Fair CLR 80.1 70.3 72% 83 29.93 0.0
01 21:35 SE 6 10.00 Fair CLR 79.9 71.2 75% 83 29.92 0.0
01 21:15 SE 6 10.00 Fair CLR 78.6 72 80% 81 29.92 0.0
01 20:55 SE 6 10.00 Fair CLR 79 72 79% 82 29.92 0.0
01 20:35 Calm 7.00 Fair CLR 80.6 72.5 76% 85 29.91 0.0
01 20:15 SE 5 10.00 Fair CLR 81 72.5 76% 86 29.9 0.0
01 19:55 Calm 10.00 Fair CLR 81.9 72.1 72% 87 29.9 0.0
01 19:35 Calm 10.00 Fair CLR 84.9 71.6 64% 91 29.9 0.0
01 19:15 S 6 10.00 Fair CLR 86.5 71.8 62% 93 29.9 0.0
01 18:55 S 7 10.00 Fair CLR 88.5 72.1 95.4 88.3 58% 96 29.9 0.0
01 18:35 S 7 10.00 Fair CLR 90 72.5 57% 98 29.91 0.0
01 18:15 S 6 10.00 Fair CLR 91 72.1 54% 99 29.91 0.0
01 17:55 S 8 10.00 Fair CLR 91.9 72.3 53% 100 29.91 0.0
01 17:35 S 7 10.00 Fair CLR 93 72.1 51% 101 29.91 0.0
01 17:15 S 9 10.00 Fair CLR 93.7 72.3 50% 102 29.91 0.0
01 16:55 S 6 10.00 Fair CLR 94.5 72 48% 103 29.91 0.0
01 16:35 SW 9 10.00 Fair CLR 94.8 70 45% 101 29.92 0.0
01 16:15 SW 8 10.00 Fair CLR 94.8 70 45% 101 29.92 0.0
01 15:55 SW 10 10.00 Fair CLR 94.6 69.6 44% 101 29.92 0.0
01 15:35 S 12 10.00 Fair CLR 95 72 47% 103 29.93 0.0
01 15:15 SW 8 10.00 Fair CLR 94.8 71.6 47% 103 29.93 0.0
01 14:55 SW 10 10.00 Fair CLR 94.5 70.3 46% 101 29.94 0.0
01 14:35 SW 9 7.00 Fair with Haze CLR 93.9 70 46% 100 29.95 0.0
01 14:15 SW 8 10.00 Fair CLR 93.7 70.9 47% 101 29.95 0.0
01 13:55 S 8 10.00 Fair CLR 93 71.1 49% 100 29.95 0.0
01 13:35 SW 7 5.00 Fair with Haze CLR 92.7 70.9 49% 99 29.96 0.0
01 13:15 SW 8 10.00 Fair CLR 92.1 71.4 51% 99 29.96 0.0
01 12:55 S 7 10.00 Fair CLR 91.6 70.5 92.1 73 50% 98 29.97 0.0
01 12:35 S 7 10.00 Fair CLR 91 70.5 51% 97 29.98 0.0
01 12:15 S 10 10.00 Fair CLR 90.1 70.7 53% 96 29.98 0.0
01 11:55 S 9 7.00 Fair with Haze CLR 89.8 70.9 54% 96 29.98 0.0
01 11:35 SW 8 10.00 Fair CLR 89.1 69.4 52% 94 29.98 0.0
01 11:15 SW 6 10.00 Fair CLR 87.6 71.6 59% 94 29.98 0.0
01 10:55 S 6 7.00 Fair CLR 86.7 71.8 61% 93 29.98 0.0
01 10:35 S 6 10.00 Fair CLR 85.3 71.4 63% 91 29.98 0.0
01 10:15 S 5 10.00 Fair CLR 84.2 71.4 66% 89 29.98 0.0
01 09:55 S 8 7.00 Fair CLR 82.8 71.1 68% 87 29.98 0.0
01 09:35 S 8 10.00 Fair CLR 81 72.1 75% 85 29.98 0.0
01 09:15 S 7 10.00 Fair CLR 79.3 71.2 76% 83 29.98 0.0
01 08:55 S 6 10.00 Fair CLR 78.6 72.5 82% 82 29.98 0.0
01 08:35 S 7 10.00 Fair CLR 79.2 73 82% 83 29.99 0.0
01 08:15 Calm 10.00 Fair CLR 76.8 72.9 88% 78 29.98 0.0
01 07:55 S 5 10.00 Fair CLR 75.6 72.7 91% 75 29.99 0.0
01 07:35 S 5 10.00 Fair CLR 74.7 72.9 94% 29.98 0.0
01 07:15 S 5 10.00 Fair CLR 73.4 72.5 97% 29.98 0.0
01 06:55 S 5 10.00 Fair CLR 73 72.1 79 72.5 97% 29.97 0.0
01 06:35 S 3 7.00 Fair CLR 72.5 71.6 97% 29.97 0.0
01 06:15 S 3 4.00 Light Rain Fog/Mist CLR 73 72 96% 29.96 0.0
01 05:55 SE 3 10.00 Fair CLR 72.5 71.8 98% 29.96 0.0
01 05:35 Calm 10.00 Fair CLR 73.2 72.3 97% 29.96 0.0
01 05:15 Calm 10.00 Fair CLR 73.9 72.9 96% 29.96 0.0
01 04:55 Calm 7.00 Fair CLR 73.2 72.3 97% 29.96 0.0
01 04:35 Calm 10.00 Fair CLR 75 73.2 94% 73 29.96 0.0
01 04:15 Calm 10.00 Fair CLR 75.2 73.4 94% 74 29.96 0.0
01 03:55 Calm 10.00 Fair CLR 73.8 72.7 96% 29.96 0.0
01 03:35 Calm 10.00 Fair CLR 74.5 73.6 97% 29.96 0.0
01 03:15 Calm 10.00 Fair CLR 74.7 73.4 96% 29.95 0.0
01 02:55 Calm 7.00 Fair CLR 75 74.1 97% 73 29.95 0.0
01 02:35 Calm 10.00 Fair CLR 74.7 73.6 96% 29.96 0.0
01 02:15 Calm 7.00 Fair CLR 76.3 74.5 94% 76 29.96 0.0
01 01:55 Calm 10.00 Fair CLR 76.8 74.5 93% 78 29.96 0.0
01 01:35 Calm 10.00 Fair CLR 76.3 74.7 95% 76 29.96 0.0
01 01:15 Calm 10.00 Fair CLR 77.7 74.8 91% 80 29.96 0.0
01 00:55 Calm 10.00 Partly Cloudy SCT120 78.4 75.4 88.3 77.4 90% 82 29.96 0.0
01 00:35 Calm 10.00 Partly Cloudy SCT120 78.6 75.4 90% 82 29.96 0.0
01 00:15 Calm 10.00 Partly Cloudy SCT120 78.6 75.6 90% 82 29.95 0.0
31 23:55 Calm 10.00 Partly Cloudy SCT120 79.2 75.9 90% 83 29.95 0.0
31 23:35 Calm 10.00 Fair CLR 79 75.6 89% 83 29.95 0.0
31 23:15 Calm 10.00 Partly Cloudy SCT120 78.1 75.6 92% 81 29.94 0.0
31 22:55 Calm 10.00 Mostly Cloudy BKN120 80.1 76.3 88% 86 29.94 0.0
31 22:35 S 5 10.00 Mostly Cloudy BKN120 79.7 76.3 89% 85 29.94 0.0
31 22:15 Calm 10.00 Mostly Cloudy BKN120 80.4 76.3 87% 86 29.94 0.0
31 21:55 Calm 5.00 Partly Cloudy with Haze SCT120 80.6 76.1 86% 87 29.94 0.0
31 21:35 Calm 10.00 Fair CLR 81.1 75.7 84% 88 29.94 0.0
31 21:15 Calm 7.00 Fair with Haze CLR 81.5 75.7 83% 88 29.93 0.0
31 20:55 Calm 10.00 Fair CLR 81.5 75.4 82% 88 29.93 0.0
31 20:35 Calm 10.00 Fair CLR 82.6 76.5 82% 91 29.93 0.0
31 20:15 Calm 10.00 Fair CLR 82.9 76.5 81% 91 29.92 0.0
31 19:55 Calm 10.00 Partly Cloudy SCT120 83.5 76.8 80% 93 29.91 0.0
31 19:35 Calm 10.00 Partly Cloudy SCT120 83.5 77 81% 93 29.92 0.0
31 19:15 Calm 10.00 Fair CLR 87.1 77.2 72% 99 29.91 0.0
31 18:35 Calm 10.00 Fair CLR 89.6 76.6 66% 102 29.91 0.0
31 18:15 SW 5 10.00 Fair CLR 90.3 75.6 62% 102 29.91 0.0
31 17:55 SW 6 10.00 Fair CLR 90.3 75.6 62% 102 29.91 0.0
31 17:35 SW 5 10.00 Fair CLR 90.9 74.8 59% 101 29.91 0.0
31 17:15 SW 6 10.00 Fair CLR 91.6 76.6 62% 105 29.91 0.0
31 16:55 SW 8 10.00 Fair CLR 91 74.8 59% 102 29.91 0.0
31 16:35 SW 9 10.00 Fair CLR 92.1 75.2 58% 104 29.91 0.0
31 16:15 SW 3 10.00 Fair CLR 92.5 75.6 58% 104 29.91 0.0
31 15:55 S 8 10.00 Fair CLR 91.4 73.9 57% 101 29.91 0.0
31 15:35 S 6 10.00 Fair CLR 90.9 73.6 57% 100 29.91 0.0
31 15:15 S 8 10.00 Fair CLR 91.8 75.7 60% 104 29.91 0.0
31 14:55 S 8 10.00 Fair CLR 91.4 75 59% 102 29.91 0.0
31 14:35 S 5 10.00 Fair CLR 91.6 73.2 55% 100 29.91 0.0
31 14:15 S 9 10.00 Fair CLR 90.5 73.8 58% 100 29.92 0.0
31 13:55 S 8 7.00 Fair with Haze CLR 89.4 72.9 58% 97 29.92 0.0
31 13:35 SW 5 10.00 Fair CLR 89.1 72.1 57% 96 29.91 0.0
31 13:15 Calm 10.00 Fair CLR 88.5 72 58% 95 29.92 0.0
31 12:55 SW 5 7.00 Fair CLR 88.5 71.6 88.9 75.7 57% 95 29.92 0.0
31 12:35 SW 3 10.00 Fair CLR 86.2 70.9 60% 92 29.92 0.0
31 12:15 SW 6 10.00 Fair CLR 87.1 71.4 60% 93 29.92 0.0
31 11:55 W 5 10.00 Fair CLR 86.2 70.3 59% 91 29.92 0.0
31 11:35 SW 5 10.00 Fair CLR 85.6 70.2 60% 90 29.92 0.0
31 11:15 W 7 10.00 Fair CLR 84.2 68.4 59% 88 29.91 0.0
31 10:55 W 10 10.00 Fair CLR 84.9 68.4 58% 88 29.92 0.0
31 10:35 W 9 10.00 Fair CLR 84.2 68.5 59% 88 29.92 0.0
31 10:15 SW 13 G 18 10.00 Fair CLR 83.5 67.5 59% 86 29.91 0.0
31 09:55 W 10 10.00 Fair CLR 83.1 67.8 60% 86 29.91 0.0
31 09:35 SW 12 10.00 Fair CLR 82.4 67.1 60% 85 29.9 0.0
31 09:15 SW 9 10.00 Fair CLR 81.3 66.6 61% 84 29.9 0.0
31 08:55 SW 12 G 18 10.00 Fair CLR 80.8 66.4 62% 83 29.9 0.0
31 08:35 SW 9 10.00 Fair CLR 79 65.7 64% 81 29.89 0.0
31 08:15 SW 12 10.00 Fair CLR 79.2 65.5 63% 81 29.89 0.0
31 07:55 SW 10 10.00 Fair CLR 78.1 65.1 65% 80 29.88 0.0
31 07:35 S 9 10.00 Fair CLR 76.8 64.8 66% 79 29.88 0.0
31 07:15 S 8 10.00 Fair CLR 76.3 64.6 67% 78 29.87 0.0
31 06:55 S 8 10.00 Fair CLR 76.1 64.4 79 76.1 67% 78 29.87 0.0
31 06:35 S 8 10.00 Fair CLR 76.5 64.2 66% 78 29.87 0.0
31 06:15 SW 8 10.00 Fair CLR 77.2 64.4 65% 79 29.87 0.0
31 05:55 S 8 10.00 Fair CLR 77.4 64.4 64% 79 29.86 0.0
31 05:35 S 8 10.00 Fair CLR 77.4 64.4 64% 79 29.86 0.0
31 05:15 S 8 10.00 Fair CLR 77 64.6 66% 79 29.85 0.0
31 04:55 S 7 10.00 Fair CLR 77 64.8 66% 79 29.86 0.0
31 04:35 S 6 10.00 Fair CLR 77.7 64.9 65% 80 29.86 0.0
31 04:15 S 6 10.00 Fair CLR 78.6 64.9 63% 80 29.86 0.0
31 03:55 S 9 10.00 Fair CLR 78.1 65.3 65% 80 29.86 0.0
31 03:35 S 8 10.00 Fair CLR 78.3 65.8 66% 80 29.86 0.0
31 03:15 S 12 10.00 Fair CLR 78.4 66 66% 80 29.86 0.0
31 02:55 S 8 10.00 Fair CLR 77.5 66.4 69% 79 29.86 0.0
31 02:35 S 8 10.00 Fair CLR 77.2 66.7 70% 79 29.86 0.0
31 02:15 S 7 10.00 Fair CLR 77.4 67.1 71% 79 29.86 0.0
31 01:55 S 8 10.00 Fair CLR 77.7 67.3 70% 80 29.87 0.0
31 01:35 S 9 10.00 Fair CLR 77.9 67.5 70% 80 29.87 0.0
31 01:15 S 8 10.00 Fair CLR 77.9 67.6 71% 80 29.87 0.0
31 00:55 S 7 10.00 Fair CLR 77.4 68 83.3 77.2 73% 79 29.87 0.0
31 00:35 SE 7 10.00 Fair CLR 77.4 68.4 74% 79 29.87 0.0
31 00:15 SE 7 10.00 Fair CLR 77.4 68.7 75% 79 29.86 0.0
30 23:55 SE 7 10.00 Fair CLR 78.1 68.9 73% 80 29.86 0.0
30 23:35 SE 10 10.00 Fair CLR 78.8 69.1 72% 81 29.86 0.0
30 23:15 SE 9 10.00 Fair CLR 78.8 69.3 73% 81 29.86 0.0
30 22:35 SE 8 10.00 Fair CLR 78.8 69.8 74% 81 29.87 0.0
30 22:15 SE 7 10.00 Fair CLR 79.5 70.9 75% 83 29.87 0.0
30 21:55 SE 7 10.00 Fair CLR 80.1 71.2 75% 84 29.87 0.0
30 21:35 SE 7 10.00 Fair CLR 80.6 71.6 74% 85 29.87 0.0
30 21:15 SE 7 10.00 Fair CLR 81.1 71.8 73% 85 29.87 0.0
30 20:55 SE 8 10.00 Fair CLR 81.7 71.8 72% 86 29.87 0.0
30 20:35 SE 10 10.00 Fair CLR 82 72.1 72% 87 29.86 0.0
30 20:15 SE 8 10.00 Fair CLR 81.7 72.9 75% 87 29.86 0.0
30 19:55 SE 8 10.00 Fair CLR 82 73.2 75% 88 29.85 0.0
30 19:35 SE 8 10.00 Fair CLR 82.2 73.8 76% 88 29.85 0.0
30 19:15 SE 8 10.00 Fair CLR 82.4 74.8 78% 89 29.85 0.0
30 18:55 SE 9 10.00 Fair CLR 83.3 74.8 84.9 77.9 76% 91 29.85 0.0
30 18:35 SE 8 10.00 Fair CLR 83.8 74.8 74% 92 29.85 0.0
30 18:15 SE 8 10.00 Fair CLR 84.2 74.8 74% 92 29.85 0.0
30 17:55 SE 9 10.00 Fair CLR 84.2 74.1 72% 92 29.85 0.0
30 17:35 SE 9 10.00 Fair CLR 84.2 73.8 71% 91 29.85 0.0
30 17:15 SE 7 10.00 Fair CLR 83.1 73 72% 89 29.86 0.0
30 16:55 SE 9 10.00 Fair CLR 83.8 73.2 70% 90 29.85 0.0
30 16:35 SE 8 10.00 Fair CLR 82.9 72.5 71% 88 29.86 0.0
30 16:15 SE 9 10.00 Fair CLR 81.7 72.1 73% 86 29.86 0.0
30 15:55 SE 8 10.00 Fair CLR 81.9 72 72% 87 29.87 0.0
30 15:35 SE 10 10.00 Fair CLR 80.4 70.9 73% 84 29.87 0.0
30 15:15 SE 7 10.00 Fair CLR 79.9 70.5 73% 83 29.88 0.0
30 14:55 SE 12 10.00 Fair CLR 79.7 69.8 72% 83 29.88 0.0
30 14:35 SE 9 10.00 Partly Cloudy SCT120 79.7 69.8 72% 83 29.89 0.0
30 14:15 SE 6 10.00 Partly Cloudy SCT120 79.5 69.6 72% 82 29.9 0.0
30 13:55 SE 8 10.00 Fair CLR 79.5 69.3 71% 82 29.9 0.0
30 13:35 S 8 10.00 Partly Cloudy SCT120 79 69.4 73% 82 29.9 0.0
30 13:15 SE 8 10.00 Fair CLR 78.1 69.4 75% 80 29.89 0.0
30 12:55 S 6 10.00 Partly Cloudy SCT120 78.3 69.8 79 73.8 75% 81 29.9 0.0
30 12:35 SE 7 10.00 Partly Cloudy SCT120 77.9 70.7 79% 80 29.91 0.0
30 12:15 SW 5 10.00 Partly Cloudy SCT065 SCT100 SCT120 78.1 70.3 77% 80 29.9 0.0
30 11:55 SW 5 10.00 Light Rain SCT046 SCT065 BKN100 76.8 69.4 78% 78 29.9 0.0
30 11:35 W 5 10.00 Overcast SCT044 SCT080 OVC120 75.4 69.6 82% 76 29.91 0.0
30 11:15 W 7 10.00 Rain SCT045 SCT070 BKN095 75.7 68.4 78% 77 29.9 0.0
30 10:55 W 8 10.00 Partly Cloudy SCT120 76.1 67.6 75% 77 29.9 0.0
30 10:35 SW 8 10.00 Fair CLR 75.9 67.5 75% 77 29.89 0.0
30 10:15 SW 9 10.00 Partly Cloudy SCT100 75.4 66.6 74% 77 29.88 0.0
30 09:55 S 6 10.00 Light Rain SCT049 SCT070 OVC100 74.1 66 76% 29.87 0.0
30 09:35 SW 13 10.00 Light Rain SCT060 SCT080 OVC100 74.3 65.8 75% 29.88 0.0
30 09:15 SW 13 G 17 10.00 Light Rain SCT065 SCT075 BKN110 76.6 64.8 67% 78 29.89 0.0
30 08:55 SW 13 G 21 10.00 Mostly Cloudy BKN110 78.6 64.4 62% 80 29.89 0.0
30 08:35 S 13 10.00 Partly Cloudy SCT110 77.5 63.9 63% 79 29.89 0.0
30 08:15 S 9 10.00 Partly Cloudy SCT110 77.5 63.7 62% 79 29.88 0.0
30 07:55 S 9 10.00 Fair CLR 77.4 62.8 61% 79 29.88 0.0
30 07:35 SW 9 10.00 Partly Cloudy SCT110 76.8 62.6 62% 79 29.89 0.0
30 07:15 S 7 10.00 Partly Cloudy SCT110 77.4 62.4 60% 79 29.88 0.0
30 06:55 S 6 10.00 Mostly Cloudy BKN110 77.2 62.4 77.5 75 60% 79 29.87 0.0
30 06:35 S 7 10.00 Partly Cloudy SCT120 77 62.6 61% 79 29.87 0.0
30 06:15 S 9 10.00 Partly Cloudy SCT110 76.3 63 64% 78 29.88 0.0
30 05:55 S 7 10.00 Fair CLR 76.1 63.1 64% 78 29.88 0.0
30 05:35 S 8 10.00 Fair CLR 76.3 63.3 64% 78 29.88 0.0
30 05:15 S 7 10.00 Fair CLR 75.6 63.5 66% 77 29.88 0.0
30 04:55 S 8 10.00 Fair CLR 75.6 63.5 66% 77 29.88 0.0
30 04:35 S 7 10.00 Fair CLR 75.4 63.5 67% 77 29.88 0.0
30 04:15 S 9 10.00 Fair CLR 75 63.5 68% 77 29.88 0.0
30 03:55 S 7 10.00 Fair CLR 75.7 63.7 66% 78 29.88 0.0
30 03:35 S 6 10.00 Fair CLR 75.6 63.7 67% 77 29.88 0.0
30 03:15 S 8 10.00 Fair CLR 75.4 63.9 68% 77 29.88 0.0
30 02:55 S 8 10.00 Fair CLR 75.6 64 68% 77 29.87 0.0
30 02:35 S 9 10.00 Fair CLR 75.7 64.2 68% 78 29.88 0.0
Date Time (cdt) Wind (mph) Vis. (mi.) Weather Sky Cond. Air Dwpt Max. Min. Relative Humidity Wind Chill (°F) Heat Index (°F) altimeter (in) sea level (mb) 1 hr 3 hr 6 hr
6 hour
Temperature (ºF) Pressure Precipitation (in)